Far Supporter — MVEU7 — position and weather

sailwx.info

Track history (hours):
 
Tides and Currents Weather Stations Pressure Air Temp Water Temp Dewpoint Dewpoint Depression Visibility Wind Speed Wind Dir Waves Ship Positions

Far Supporter

Last reported at 2018-Feb-21 15:53 UTC. Time now 2018-Feb-25 08:18 UTC.
Position N 32°07' E 032°19'.

Length 84 m; draft 5.4 m.

Type: Cargo ship. MMSI: 233795000.

Date/timePositionNaut miles runAvg speedWind from/ knotsBaromVisibWave heightAir tempDewpointWater temp
2018-Feb-21 15:53N 32°07' E 032°19'157 8.5
2018-Feb-20 21:21N 34°39' E 033°04'0 0.6
2018-Feb-20 21:01N 34°40' E 033°03'1 0.2
2018-Feb-20 17:07N 34°39' E 033°02'1 7.5
2018-Feb-20 17:00N 34°39' E 033°02'1 1.0
2018-Feb-20 16:31N 34°39' E 033°01'0 0.0
2018-Feb-20 16:01N 34°39' E 033°01'0 0.0
2018-Feb-20 15:31N 34°39' E 033°01'0 0.0
2018-Feb-20 15:00N 34°39' E 033°01'0 0.0
2018-Feb-20 14:31N 34°39' E 033°01'0 0.0
2018-Feb-20 14:00N 34°39' E 033°01'0 0.0
2018-Feb-20 13:30N 34°39' E 033°01'0 0.0
2018-Feb-20 13:00N 34°39' E 033°01'0 0.0
2018-Feb-20 12:30N 34°39' E 033°01'0 0.0
2018-Feb-20 12:00N 34°39' E 033°01'0 0.0
2018-Feb-20 11:30N 34°39' E 033°01'0 0.0
2018-Feb-20 11:01N 34°39' E 033°01'0 0.0
2018-Feb-20 10:31N 34°39' E 033°01'0 0.0
2018-Feb-20 10:00N 34°39' E 033°01'0 0.0
2018-Feb-20 09:30N 34°39' E 033°01'0 0.0
2018-Feb-20 08:59N 34°39' E 033°01'0 0.0
2018-Feb-20 08:30N 34°39' E 033°01'0 0.0
2018-Feb-20 08:00N 34°39' E 033°01'0 0.0
2018-Feb-20 07:29N 34°39' E 033°01'0 0.0
2018-Feb-20 07:01N 34°39' E 033°01'0 0.0
2018-Feb-20 06:28N 34°39' E 033°01'0 0.0
2018-Feb-20 06:00N 34°39' E 033°01'0 0.0
2018-Feb-20 05:30N 34°39' E 033°01'2 3.2
2018-Feb-20 05:01N 34°39' E 033°03'1 1.2
2018-Feb-20 04:30N 34°39' E 033°03'  
Track history (hours):
 
Tides and Currents Weather Stations Pressure Air Temp Water Temp Dewpoint Dewpoint Depression Visibility Wind Speed Wind Dir Waves Ship Positions

Far Supporter

Last reported at 2018-Feb-21 15:53 UTC. Time now 2018-Feb-25 08:18 UTC.
Position N 32°07' E 032°19'.

Length 84 m; draft 5.4 m.

Type: Cargo ship. MMSI: 233795000.

Date/timePositionNaut miles runAvg speedWind from/ knotsBaromVisibWave heightAir tempDewpointWater temp
2018-Feb-21 15:53N 32°07' E 032°19'157 8.5
2018-Feb-20 21:21N 34°39' E 033°04'0 0.6
2018-Feb-20 21:01N 34°40' E 033°03'1 0.2
2018-Feb-20 17:07N 34°39' E 033°02'1 7.5
2018-Feb-20 17:00N 34°39' E 033°02'1 1.0
2018-Feb-20 16:31N 34°39' E 033°01'0 0.0
2018-Feb-20 16:01N 34°39' E 033°01'0 0.0
2018-Feb-20 15:31N 34°39' E 033°01'0 0.0
2018-Feb-20 15:00N 34°39' E 033°01'0 0.0
2018-Feb-20 14:31N 34°39' E 033°01'0 0.0
2018-Feb-20 14:00N 34°39' E 033°01'0 0.0
2018-Feb-20 13:30N 34°39' E 033°01'0 0.0
2018-Feb-20 13:00N 34°39' E 033°01'0 0.0
2018-Feb-20 12:30N 34°39' E 033°01'0 0.0
2018-Feb-20 12:00N 34°39' E 033°01'0 0.0
2018-Feb-20 11:30N 34°39' E 033°01'0 0.0
2018-Feb-20 11:01N 34°39' E 033°01'0 0.0
2018-Feb-20 10:31N 34°39' E 033°01'0 0.0
2018-Feb-20 10:00N 34°39' E 033°01'0 0.0
2018-Feb-20 09:30N 34°39' E 033°01'0 0.0
2018-Feb-20 08:59N 34°39' E 033°01'0 0.0
2018-Feb-20 08:30N 34°39' E 033°01'0 0.0
2018-Feb-20 08:00N 34°39' E 033°01'0 0.0
2018-Feb-20 07:29N 34°39' E 033°01'0 0.0
2018-Feb-20 07:01N 34°39' E 033°01'0 0.0
2018-Feb-20 06:28N 34°39' E 033°01'0 0.0
2018-Feb-20 06:00N 34°39' E 033°01'0 0.0
2018-Feb-20 05:30N 34°39' E 033°01'2 3.2
2018-Feb-20 05:01N 34°39' E 033°03'1 1.2
2018-Feb-20 04:30N 34°39' E 033°03'  

Dump ship's entire track history